Kowloon, China
Current Conditions -  °F | °C
As of 12:00 PM on Friday 31 Oct 2014 (Local Time) from VHHH Reporting Station
Scattered Clouds Scattered Clouds  
Wind Chill: 84°   Ceiling: Unl
Heat Index: 87°   Visibility: 6mi
Dew Point: 68°   Wind: 8mph
Humidity: 58%   Direction: 360°N
Pressure: 29.94"   Gusts: NA
Location:  22.31°N, 114.18°E
Report Text: VHHH 310400Z 36007KT 330V030 9999 FEW020 SCT030 29/20 Q1014 NOSIG
Loading
Personal Weather Stations






























Interactive Weather Map
Tropical Storm Tracking
New forecast layout! Learn more

10-Day Weather Forecast

Advertisements
Track Severe Weather on mobile